sensor_id;sensor_type;location;lat;lon;timestamp;P1;durP1;ratioP1;P2;durP2;ratioP2
46334;SDS011;32051;48.882;9.210;2023-08-24T00:00:11;3.85;;;3.55;;
46334;SDS011;32051;48.882;9.210;2023-08-24T00:02:37;11.48;;;4.05;;
46334;SDS011;32051;48.882;9.210;2023-08-24T00:05:03;7.90;;;3.70;;
46334;SDS011;32051;48.882;9.210;2023-08-24T00:07:30;3.97;;;3.25;;
46334;SDS011;32051;48.882;9.210;2023-08-24T00:09:57;5.82;;;4.20;;
46334;SDS011;32051;48.882;9.210;2023-08-24T00:12:23;7.15;;;3.40;;
46334;SDS011;32051;48.882;9.210;2023-08-24T00:14:50;4.35;;;3.95;;
46334;SDS011;32051;48.882;9.210;2023-08-24T00:17:17;14.10;;;4.38;;
46334;SDS011;32051;48.882;9.210;2023-08-24T00:19:44;9.52;;;3.40;;
46334;SDS011;32051;48.882;9.210;2023-08-24T00:22:11;7.47;;;3.53;;
46334;SDS011;32051;48.882;9.210;2023-08-24T00:24:37;11.73;;;3.10;;
46334;SDS011;32051;48.882;9.210;2023-08-24T00:27:04;3.38;;;3.17;;
46334;SDS011;32051;48.882;9.210;2023-08-24T00:29:30;6.68;;;3.90;;
46334;SDS011;32051;48.882;9.210;2023-08-24T00:31:56;3.28;;;2.78;;
46334;SDS011;32051;48.882;9.210;2023-08-24T00:34:22;8.98;;;3.90;;
46334;SDS011;32051;48.882;9.210;2023-08-24T00:36:48;4.20;;;3.88;;
46334;SDS011;32051;48.882;9.210;2023-08-24T00:39:14;10.13;;;3.80;;
46334;SDS011;32051;48.882;9.210;2023-08-24T00:41:41;7.40;;;3.80;;
46334;SDS011;32051;48.882;9.210;2023-08-24T00:44:07;7.40;;;3.83;;
46334;SDS011;32051;48.882;9.210;2023-08-24T00:46:34;4.47;;;4.13;;
46334;SDS011;32051;48.882;9.210;2023-08-24T00:49:00;8.45;;;3.78;;
46334;SDS011;32051;48.882;9.210;2023-08-24T00:51:26;4.15;;;3.75;;
46334;SDS011;32051;48.882;9.210;2023-08-24T00:53:52;17.95;;;4.28;;
46334;SDS011;32051;48.882;9.210;2023-08-24T00:56:19;6.32;;;4.20;;
46334;SDS011;32051;48.882;9.210;2023-08-24T00:58:49;7.88;;;4.05;;
46334;SDS011;32051;48.882;9.210;2023-08-24T01:01:17;6.55;;;4.10;;
46334;SDS011;32051;48.882;9.210;2023-08-24T01:03:43;7.07;;;4.43;;
46334;SDS011;32051;48.882;9.210;2023-08-24T01:06:09;7.00;;;3.03;;
46334;SDS011;32051;48.882;9.210;2023-08-24T01:08:35;8.32;;;3.88;;
46334;SDS011;32051;48.882;9.210;2023-08-24T01:11:04;8.57;;;3.78;;
46334;SDS011;32051;48.882;9.210;2023-08-24T01:13:44;6.10;;;4.43;;
46334;SDS011;32051;48.882;9.210;2023-08-24T01:16:13;4.80;;;4.45;;
46334;SDS011;32051;48.882;9.210;2023-08-24T01:18:42;5.78;;;4.57;;
46334;SDS011;32051;48.882;9.210;2023-08-24T01:21:09;6.03;;;5.03;;
46334;SDS011;32051;48.882;9.210;2023-08-24T01:23:46;5.18;;;4.70;;
46334;SDS011;32051;48.882;9.210;2023-08-24T01:26:17;7.57;;;3.63;;
46334;SDS011;32051;48.882;9.210;2023-08-24T01:28:44;4.65;;;4.25;;
46334;SDS011;32051;48.882;9.210;2023-08-24T01:31:12;7.72;;;4.05;;
46334;SDS011;32051;48.882;9.210;2023-08-24T01:33:39;11.20;;;4.38;;
46334;SDS011;32051;48.882;9.210;2023-08-24T01:36:06;4.35;;;3.95;;
46334;SDS011;32051;48.882;9.210;2023-08-24T01:38:32;7.15;;;3.47;;
46334;SDS011;32051;48.882;9.210;2023-08-24T01:41:05;4.70;;;4.30;;
46334;SDS011;32051;48.882;9.210;2023-08-24T01:43:34;7.80;;;3.90;;
46334;SDS011;32051;48.882;9.210;2023-08-24T01:46:04;5.55;;;3.83;;
46334;SDS011;32051;48.882;9.210;2023-08-24T01:48:31;8.95;;;4.05;;
46334;SDS011;32051;48.882;9.210;2023-08-24T01:50:58;4.68;;;4.30;;
46334;SDS011;32051;48.882;9.210;2023-08-24T01:53:26;4.82;;;4.03;;
46334;SDS011;32051;48.882;9.210;2023-08-24T01:55:52;9.70;;;4.82;;
46334;SDS011;32051;48.882;9.210;2023-08-24T01:58:18;4.50;;;3.85;;
46334;SDS011;32051;48.882;9.210;2023-08-24T02:00:44;5.78;;;5.25;;
46334;SDS011;32051;48.882;9.210;2023-08-24T02:03:10;6.40;;;4.15;;
46334;SDS011;32051;48.882;9.210;2023-08-24T02:05:36;9.45;;;5.03;;
46334;SDS011;32051;48.882;9.210;2023-08-24T02:08:03;4.60;;;4.25;;
46334;SDS011;32051;48.882;9.210;2023-08-24T02:10:29;12.88;;;4.93;;
46334;SDS011;32051;48.882;9.210;2023-08-24T02:12:56;6.00;;;5.00;;
46334;SDS011;32051;48.882;9.210;2023-08-24T02:15:22;9.30;;;4.68;;
46334;SDS011;32051;48.882;9.210;2023-08-24T02:17:48;7.03;;;3.97;;
46334;SDS011;32051;48.882;9.210;2023-08-24T02:20:14;4.85;;;4.43;;
46334;SDS011;32051;48.882;9.210;2023-08-24T02:22:40;8.00;;;5.18;;
46334;SDS011;32051;48.882;9.210;2023-08-24T02:25:06;3.97;;;3.60;;
46334;SDS011;32051;48.882;9.210;2023-08-24T02:27:33;18.52;;;5.25;;
46334;SDS011;32051;48.882;9.210;2023-08-24T02:29:59;5.65;;;5.20;;
46334;SDS011;32051;48.882;9.210;2023-08-24T02:32:25;5.40;;;4.88;;
46334;SDS011;32051;48.882;9.210;2023-08-24T02:34:51;11.95;;;4.63;;
46334;SDS011;32051;48.882;9.210;2023-08-24T02:37:17;8.25;;;4.55;;
46334;SDS011;32051;48.882;9.210;2023-08-24T02:39:43;5.32;;;4.93;;
46334;SDS011;32051;48.882;9.210;2023-08-24T02:42:10;6.07;;;4.97;;
46334;SDS011;32051;48.882;9.210;2023-08-24T02:44:36;5.40;;;5.00;;
46334;SDS011;32051;48.882;9.210;2023-08-24T02:47:02;10.40;;;5.50;;
46334;SDS011;32051;48.882;9.210;2023-08-24T02:49:28;5.93;;;4.90;;
46334;SDS011;32051;48.882;9.210;2023-08-24T02:51:55;6.93;;;5.13;;
46334;SDS011;32051;48.882;9.210;2023-08-24T02:54:21;4.95;;;4.55;;
46334;SDS011;32051;48.882;9.210;2023-08-24T02:56:48;5.40;;;5.00;;
46334;SDS011;32051;48.882;9.210;2023-08-24T02:59:14;7.20;;;4.00;;
46334;SDS011;32051;48.882;9.210;2023-08-24T03:01:40;5.70;;;5.15;;
46334;SDS011;32051;48.882;9.210;2023-08-24T03:04:06;7.38;;;4.22;;
46334;SDS011;32051;48.882;9.210;2023-08-24T03:06:32;7.38;;;4.70;;
46334;SDS011;32051;48.882;9.210;2023-08-24T03:08:59;7.25;;;4.22;;
46334;SDS011;32051;48.882;9.210;2023-08-24T03:11:26;7.40;;;4.60;;
46334;SDS011;32051;48.882;9.210;2023-08-24T03:13:52;6.25;;;4.70;;
46334;SDS011;32051;48.882;9.210;2023-08-24T03:16:19;9.38;;;4.70;;
46334;SDS011;32051;48.882;9.210;2023-08-24T03:18:45;17.77;;;5.07;;
46334;SDS011;32051;48.882;9.210;2023-08-24T03:21:11;8.35;;;4.72;;
46334;SDS011;32051;48.882;9.210;2023-08-24T03:23:38;9.63;;;4.47;;
46334;SDS011;32051;48.882;9.210;2023-08-24T03:26:05;5.72;;;4.07;;
46334;SDS011;32051;48.882;9.210;2023-08-24T03:28:32;4.90;;;4.45;;
46334;SDS011;32051;48.882;9.210;2023-08-24T03:30:59;12.95;;;4.18;;
46334;SDS011;32051;48.882;9.210;2023-08-24T03:33:27;7.10;;;5.22;;
46334;SDS011;32051;48.882;9.210;2023-08-24T03:35:53;5.07;;;4.53;;
46334;SDS011;32051;48.882;9.210;2023-08-24T03:38:19;8.43;;;4.72;;
46334;SDS011;32051;48.882;9.210;2023-08-24T03:40:45;5.55;;;4.60;;
46334;SDS011;32051;48.882;9.210;2023-08-24T03:43:11;4.90;;;4.57;;
46334;SDS011;32051;48.882;9.210;2023-08-24T03:45:38;5.97;;;4.65;;
46334;SDS011;32051;48.882;9.210;2023-08-24T03:48:04;10.43;;;4.32;;
46334;SDS011;32051;48.882;9.210;2023-08-24T03:50:30;5.63;;;4.78;;
46334;SDS011;32051;48.882;9.210;2023-08-24T03:52:57;6.93;;;5.57;;
46334;SDS011;32051;48.882;9.210;2023-08-24T03:55:23;9.20;;;4.57;;
46334;SDS011;32051;48.882;9.210;2023-08-24T03:57:49;12.32;;;5.07;;
46334;SDS011;32051;48.882;9.210;2023-08-24T04:00:15;6.70;;;5.00;;
46334;SDS011;32051;48.882;9.210;2023-08-24T04:02:42;7.75;;;4.80;;
46334;SDS011;32051;48.882;9.210;2023-08-24T04:05:12;4.55;;;4.25;;
46334;SDS011;32051;48.882;9.210;2023-08-24T04:07:38;6.90;;;4.65;;
46334;SDS011;32051;48.882;9.210;2023-08-24T04:10:05;5.18;;;4.68;;
46334;SDS011;32051;48.882;9.210;2023-08-24T04:12:32;15.73;;;5.15;;
46334;SDS011;32051;48.882;9.210;2023-08-24T04:14:58;9.85;;;6.72;;
46334;SDS011;32051;48.882;9.210;2023-08-24T04:17:24;14.90;;;6.65;;
46334;SDS011;32051;48.882;9.210;2023-08-24T04:19:50;4.47;;;4.07;;
46334;SDS011;32051;48.882;9.210;2023-08-24T04:22:18;12.98;;;5.10;;
46334;SDS011;32051;48.882;9.210;2023-08-24T04:24:44;4.78;;;4.47;;
46334;SDS011;32051;48.882;9.210;2023-08-24T04:27:10;7.30;;;4.43;;
46334;SDS011;32051;48.882;9.210;2023-08-24T04:29:36;6.53;;;5.00;;
46334;SDS011;32051;48.882;9.210;2023-08-24T04:32:02;5.20;;;4.63;;
46334;SDS011;32051;48.882;9.210;2023-08-24T04:34:28;6.38;;;4.30;;
46334;SDS011;32051;48.882;9.210;2023-08-24T04:36:54;8.38;;;4.90;;
46334;SDS011;32051;48.882;9.210;2023-08-24T04:39:20;13.50;;;4.57;;
46334;SDS011;32051;48.882;9.210;2023-08-24T04:41:46;9.10;;;4.30;;
46334;SDS011;32051;48.882;9.210;2023-08-24T04:44:13;5.28;;;4.25;;
46334;SDS011;32051;48.882;9.210;2023-08-24T04:46:39;11.50;;;4.95;;
46334;SDS011;32051;48.882;9.210;2023-08-24T04:49:05;6.03;;;4.47;;
46334;SDS011;32051;48.882;9.210;2023-08-24T04:51:31;9.75;;;4.80;;
46334;SDS011;32051;48.882;9.210;2023-08-24T04:53:57;10.18;;;4.45;;
46334;SDS011;32051;48.882;9.210;2023-08-24T04:56:23;6.00;;;4.38;;
46334;SDS011;32051;48.882;9.210;2023-08-24T04:58:53;4.97;;;4.57;;
46334;SDS011;32051;48.882;9.210;2023-08-24T05:01:20;9.60;;;6.03;;
46334;SDS011;32051;48.882;9.210;2023-08-24T05:03:46;4.20;;;3.90;;
46334;SDS011;32051;48.882;9.210;2023-08-24T05:06:12;7.07;;;4.35;;
46334;SDS011;32051;48.882;9.210;2023-08-24T05:08:38;9.85;;;4.20;;
46334;SDS011;32051;48.882;9.210;2023-08-24T05:11:14;4.88;;;4.47;;
46334;SDS011;32051;48.882;9.210;2023-08-24T05:13:40;4.88;;;4.47;;
46334;SDS011;32051;48.882;9.210;2023-08-24T05:16:06;7.45;;;4.57;;
46334;SDS011;32051;48.882;9.210;2023-08-24T05:18:33;10.75;;;4.57;;
46334;SDS011;32051;48.882;9.210;2023-08-24T05:21:03;10.60;;;4.57;;
46334;SDS011;32051;48.882;9.210;2023-08-24T05:23:29;5.45;;;4.53;;
46334;SDS011;32051;48.882;9.210;2023-08-24T05:25:58;4.22;;;3.78;;
46334;SDS011;32051;48.882;9.210;2023-08-24T05:28:28;8.00;;;4.50;;
46334;SDS011;32051;48.882;9.210;2023-08-24T05:30:54;12.18;;;5.22;;
46334;SDS011;32051;48.882;9.210;2023-08-24T05:33:21;11.75;;;5.07;;
46334;SDS011;32051;48.882;9.210;2023-08-24T05:35:48;10.75;;;4.80;;
46334;SDS011;32051;48.882;9.210;2023-08-24T05:38:14;7.47;;;5.22;;
46334;SDS011;32051;48.882;9.210;2023-08-24T05:40:40;7.22;;;4.55;;
46334;SDS011;32051;48.882;9.210;2023-08-24T05:43:08;5.20;;;4.80;;
46334;SDS011;32051;48.882;9.210;2023-08-24T05:45:34;7.05;;;5.32;;
46334;SDS011;32051;48.882;9.210;2023-08-24T05:48:00;7.20;;;4.95;;
46334;SDS011;32051;48.882;9.210;2023-08-24T05:50:26;5.57;;;4.07;;
46334;SDS011;32051;48.882;9.210;2023-08-24T05:52:53;5.82;;;4.15;;
46334;SDS011;32051;48.882;9.210;2023-08-24T05:55:19;5.63;;;4.15;;
46334;SDS011;32051;48.882;9.210;2023-08-24T05:57:45;9.05;;;4.13;;
46334;SDS011;32051;48.882;9.210;2023-08-24T06:00:11;7.60;;;5.60;;
46334;SDS011;32051;48.882;9.210;2023-08-24T06:02:38;6.18;;;4.07;;
46334;SDS011;32051;48.882;9.210;2023-08-24T06:05:05;12.60;;;4.70;;
46334;SDS011;32051;48.882;9.210;2023-08-24T06:07:31;7.05;;;4.20;;
46334;SDS011;32051;48.882;9.210;2023-08-24T06:09:57;13.00;;;4.40;;
46334;SDS011;32051;48.882;9.210;2023-08-24T06:12:24;4.85;;;4.00;;
46334;SDS011;32051;48.882;9.210;2023-08-24T06:14:50;8.95;;;5.05;;
46334;SDS011;32051;48.882;9.210;2023-08-24T06:17:16;6.72;;;4.75;;
46334;SDS011;32051;48.882;9.210;2023-08-24T06:19:42;8.57;;;4.25;;
46334;SDS011;32051;48.882;9.210;2023-08-24T06:22:08;6.18;;;4.05;;
46334;SDS011;32051;48.882;9.210;2023-08-24T06:24:34;5.70;;;4.20;;
46334;SDS011;32051;48.882;9.210;2023-08-24T06:27:00;6.68;;;4.30;;
46334;SDS011;32051;48.882;9.210;2023-08-24T06:29:30;8.85;;;3.33;;
46334;SDS011;32051;48.882;9.210;2023-08-24T06:31:56;6.53;;;3.90;;
46334;SDS011;32051;48.882;9.210;2023-08-24T06:34:22;4.00;;;3.60;;
46334;SDS011;32051;48.882;9.210;2023-08-24T06:36:49;8.68;;;4.47;;
46334;SDS011;32051;48.882;9.210;2023-08-24T06:39:16;5.00;;;4.03;;
46334;SDS011;32051;48.882;9.210;2023-08-24T06:41:42;13.05;;;4.32;;
46334;SDS011;32051;48.882;9.210;2023-08-24T06:44:08;11.13;;;3.15;;
46334;SDS011;32051;48.882;9.210;2023-08-24T06:46:34;5.82;;;3.50;;
46334;SDS011;32051;48.882;9.210;2023-08-24T06:49:00;5.53;;;3.72;;
46334;SDS011;32051;48.882;9.210;2023-08-24T06:51:26;10.30;;;3.15;;
46334;SDS011;32051;48.882;9.210;2023-08-24T06:53:53;7.70;;;3.67;;
46334;SDS011;32051;48.882;9.210;2023-08-24T06:56:19;19.33;;;3.42;;
46334;SDS011;32051;48.882;9.210;2023-08-24T06:58:47;12.57;;;3.75;;
46334;SDS011;32051;48.882;9.210;2023-08-24T07:01:13;6.30;;;3.20;;
46334;SDS011;32051;48.882;9.210;2023-08-24T07:03:39;21.15;;;3.42;;
46334;SDS011;32051;48.882;9.210;2023-08-24T07:06:06;11.88;;;3.15;;
46334;SDS011;32051;48.882;9.210;2023-08-24T07:08:37;13.20;;;4.00;;
46334;SDS011;32051;48.882;9.210;2023-08-24T07:11:04;10.18;;;3.80;;
46334;SDS011;32051;48.882;9.210;2023-08-24T07:13:30;15.52;;;4.20;;
46334;SDS011;32051;48.882;9.210;2023-08-24T07:15:57;6.57;;;3.45;;
46334;SDS011;32051;48.882;9.210;2023-08-24T07:18:23;16.45;;;3.58;;
46334;SDS011;32051;48.882;9.210;2023-08-24T07:20:49;11.07;;;3.65;;
46334;SDS011;32051;48.882;9.210;2023-08-24T07:23:15;6.00;;;3.90;;
46334;SDS011;32051;48.882;9.210;2023-08-24T07:25:41;12.13;;;2.67;;
46334;SDS011;32051;48.882;9.210;2023-08-24T07:28:07;3.63;;;3.38;;
46334;SDS011;32051;48.882;9.210;2023-08-24T07:30:35;2.78;;;2.58;;
46334;SDS011;32051;48.882;9.210;2023-08-24T07:33:01;9.38;;;2.92;;
46334;SDS011;32051;48.882;9.210;2023-08-24T07:35:30;3.17;;;2.97;;
46334;SDS011;32051;48.882;9.210;2023-08-24T07:37:57;13.13;;;2.50;;
46334;SDS011;32051;48.882;9.210;2023-08-24T07:40:23;7.47;;;3.13;;
46334;SDS011;32051;48.882;9.210;2023-08-24T07:42:50;7.38;;;2.75;;
46334;SDS011;32051;48.882;9.210;2023-08-24T07:45:18;8.07;;;2.72;;
46334;SDS011;32051;48.882;9.210;2023-08-24T07:47:44;6.20;;;2.65;;
46334;SDS011;32051;48.882;9.210;2023-08-24T07:50:10;4.55;;;2.72;;
46334;SDS011;32051;48.882;9.210;2023-08-24T07:52:40;3.30;;;3.00;;
46334;SDS011;32051;48.882;9.210;2023-08-24T07:55:06;3.45;;;2.88;;
46334;SDS011;32051;48.882;9.210;2023-08-24T07:57:33;6.30;;;2.78;;
46334;SDS011;32051;48.882;9.210;2023-08-24T07:59:59;8.93;;;3.55;;
46334;SDS011;32051;48.882;9.210;2023-08-24T08:02:25;5.97;;;2.63;;
46334;SDS011;32051;48.882;9.210;2023-08-24T08:04:55;9.32;;;3.65;;
46334;SDS011;32051;48.882;9.210;2023-08-24T08:07:25;10.73;;;2.42;;
46334;SDS011;32051;48.882;9.210;2023-08-24T08:09:52;7.00;;;2.28;;
46334;SDS011;32051;48.882;9.210;2023-08-24T08:12:18;7.35;;;2.60;;
46334;SDS011;32051;48.882;9.210;2023-08-24T08:14:44;4.85;;;2.60;;
46334;SDS011;32051;48.882;9.210;2023-08-24T08:17:10;5.82;;;2.35;;
46334;SDS011;32051;48.882;9.210;2023-08-24T08:19:36;8.23;;;2.42;;
46334;SDS011;32051;48.882;9.210;2023-08-24T08:22:03;6.03;;;2.13;;
46334;SDS011;32051;48.882;9.210;2023-08-24T08:24:29;2.28;;;2.10;;
46334;SDS011;32051;48.882;9.210;2023-08-24T08:26:55;8.05;;;2.30;;
46334;SDS011;32051;48.882;9.210;2023-08-24T08:29:21;11.73;;;2.55;;
46334;SDS011;32051;48.882;9.210;2023-08-24T08:31:48;8.15;;;3.05;;
46334;SDS011;32051;48.882;9.210;2023-08-24T08:34:14;10.73;;;2.80;;
46334;SDS011;32051;48.882;9.210;2023-08-24T08:36:40;12.57;;;2.33;;
46334;SDS011;32051;48.882;9.210;2023-08-24T08:39:06;9.57;;;2.53;;
46334;SDS011;32051;48.882;9.210;2023-08-24T08:41:33;4.60;;;2.20;;
46334;SDS011;32051;48.882;9.210;2023-08-24T08:44:04;4.68;;;2.33;;
46334;SDS011;32051;48.882;9.210;2023-08-24T08:46:31;9.27;;;2.95;;
46334;SDS011;32051;48.882;9.210;2023-08-24T08:48:59;7.18;;;2.45;;
46334;SDS011;32051;48.882;9.210;2023-08-24T08:51:26;12.48;;;2.03;;
46334;SDS011;32051;48.882;9.210;2023-08-24T08:53:53;4.00;;;1.88;;
46334;SDS011;32051;48.882;9.210;2023-08-24T08:56:19;7.50;;;1.98;;
46334;SDS011;32051;48.882;9.210;2023-08-24T08:58:46;12.57;;;2.88;;
46334;SDS011;32051;48.882;9.210;2023-08-24T09:01:12;3.65;;;2.20;;
46334;SDS011;32051;48.882;9.210;2023-08-24T09:03:39;9.40;;;3.35;;
46334;SDS011;32051;48.882;9.210;2023-08-24T09:06:05;7.93;;;2.13;;
46334;SDS011;32051;48.882;9.210;2023-08-24T09:08:31;4.45;;;2.20;;
46334;SDS011;32051;48.882;9.210;2023-08-24T09:11:00;18.67;;;2.33;;
46334;SDS011;32051;48.882;9.210;2023-08-24T09:13:28;5.15;;;2.45;;
46334;SDS011;32051;48.882;9.210;2023-08-24T09:15:54;10.65;;;2.03;;
46334;SDS011;32051;48.882;9.210;2023-08-24T09:18:38;6.63;;;2.20;;
46334;SDS011;32051;48.882;9.210;2023-08-24T09:21:08;6.47;;;2.70;;
46334;SDS011;32051;48.882;9.210;2023-08-24T09:23:34;6.25;;;2.20;;
46334;SDS011;32051;48.882;9.210;2023-08-24T09:26:00;5.28;;;1.85;;
46334;SDS011;32051;48.882;9.210;2023-08-24T09:28:26;4.78;;;2.67;;
46334;SDS011;32051;48.882;9.210;2023-08-24T09:30:53;5.90;;;3.22;;
46334;SDS011;32051;48.882;9.210;2023-08-24T09:33:22;9.27;;;2.40;;
46334;SDS011;32051;48.882;9.210;2023-08-24T09:35:53;5.28;;;2.58;;
46334;SDS011;32051;48.882;9.210;2023-08-24T09:38:23;8.60;;;2.00;;
46334;SDS011;32051;48.882;9.210;2023-08-24T09:40:52;6.93;;;2.95;;
46334;SDS011;32051;48.882;9.210;2023-08-24T09:43:19;8.45;;;2.28;;
46334;SDS011;32051;48.882;9.210;2023-08-24T09:45:49;6.18;;;2.25;;
46334;SDS011;32051;48.882;9.210;2023-08-24T09:48:15;9.90;;;2.90;;
46334;SDS011;32051;48.882;9.210;2023-08-24T09:50:45;5.30;;;2.33;;
46334;SDS011;32051;48.882;9.210;2023-08-24T09:53:19;9.40;;;2.97;;
46334;SDS011;32051;48.882;9.210;2023-08-24T09:55:48;16.33;;;2.10;;
46334;SDS011;32051;48.882;9.210;2023-08-24T09:58:15;10.88;;;2.25;;
46334;SDS011;32051;48.882;9.210;2023-08-24T10:00:41;8.15;;;2.38;;
46334;SDS011;32051;48.882;9.210;2023-08-24T10:03:08;8.05;;;2.88;;
46334;SDS011;32051;48.882;9.210;2023-08-24T10:05:36;4.90;;;2.67;;
46334;SDS011;32051;48.882;9.210;2023-08-24T10:08:03;6.15;;;2.20;;
46334;SDS011;32051;48.882;9.210;2023-08-24T10:10:30;4.38;;;2.40;;
46334;SDS011;32051;48.882;9.210;2023-08-24T10:12:59;11.05;;;2.55;;
46334;SDS011;32051;48.882;9.210;2023-08-24T10:15:26;7.72;;;2.03;;
46334;SDS011;32051;48.882;9.210;2023-08-24T10:17:52;6.75;;;2.13;;
46334;SDS011;32051;48.882;9.210;2023-08-24T10:20:19;6.63;;;2.03;;
46334;SDS011;32051;48.882;9.210;2023-08-24T10:22:46;13.13;;;3.42;;
46334;SDS011;32051;48.882;9.210;2023-08-24T10:25:14;5.50;;;2.40;;
46334;SDS011;32051;48.882;9.210;2023-08-24T10:27:42;3.10;;;2.05;;
46334;SDS011;32051;48.882;9.210;2023-08-24T10:30:11;3.92;;;1.95;;
46334;SDS011;32051;48.882;9.210;2023-08-24T10:32:37;7.15;;;3.13;;
46334;SDS011;32051;48.882;9.210;2023-08-24T10:35:04;6.35;;;2.30;;
46334;SDS011;32051;48.882;9.210;2023-08-24T10:37:30;14.13;;;5.00;;
46334;SDS011;32051;48.882;9.210;2023-08-24T10:39:59;7.75;;;2.88;;
46334;SDS011;32051;48.882;9.210;2023-08-24T10:42:26;4.82;;;2.40;;
46334;SDS011;32051;48.882;9.210;2023-08-24T10:44:52;2.67;;;2.47;;
46334;SDS011;32051;48.882;9.210;2023-08-24T10:47:19;5.28;;;2.30;;
46334;SDS011;32051;48.882;9.210;2023-08-24T10:50:06;21.55;;;4.65;;
46334;SDS011;32051;48.882;9.210;2023-08-24T10:52:36;8.07;;;2.35;;
46334;SDS011;32051;48.882;9.210;2023-08-24T10:55:04;12.18;;;2.58;;
46334;SDS011;32051;48.882;9.210;2023-08-24T10:57:34;2.70;;;2.50;;
46334;SDS011;32051;48.882;9.210;2023-08-24T11:00:08;7.90;;;1.98;;
46334;SDS011;32051;48.882;9.210;2023-08-24T11:05:14;7.50;;;2.25;;
46334;SDS011;32051;48.882;9.210;2023-08-24T11:07:48;4.22;;;2.25;;
46334;SDS011;32051;48.882;9.210;2023-08-24T11:10:14;7.25;;;2.70;;
46334;SDS011;32051;48.882;9.210;2023-08-24T11:15:32;9.40;;;2.40;;
46334;SDS011;32051;48.882;9.210;2023-08-24T11:18:14;5.70;;;2.63;;
46334;SDS011;32051;48.882;9.210;2023-08-24T11:20:47;13.13;;;2.97;;
46334;SDS011;32051;48.882;9.210;2023-08-24T11:23:16;7.88;;;2.20;;
46334;SDS011;32051;48.882;9.210;2023-08-24T11:25:42;2.75;;;2.42;;
46334;SDS011;32051;48.882;9.210;2023-08-24T11:28:09;2.90;;;2.17;;
46334;SDS011;32051;48.882;9.210;2023-08-24T11:30:35;4.05;;;2.53;;
46334;SDS011;32051;48.882;9.210;2023-08-24T11:33:01;2.67;;;2.47;;
46334;SDS011;32051;48.882;9.210;2023-08-24T11:35:28;7.95;;;2.50;;
46334;SDS011;32051;48.882;9.210;2023-08-24T11:37:55;9.75;;;2.35;;
46334;SDS011;32051;48.882;9.210;2023-08-24T11:40:21;3.65;;;2.58;;
46334;SDS011;32051;48.882;9.210;2023-08-24T11:42:55;2.55;;;2.10;;
46334;SDS011;32051;48.882;9.210;2023-08-24T11:45:21;4.95;;;2.28;;
46334;SDS011;32051;48.882;9.210;2023-08-24T11:47:47;15.55;;;2.40;;
46334;SDS011;32051;48.882;9.210;2023-08-24T11:50:14;6.32;;;2.97;;
46334;SDS011;32051;48.882;9.210;2023-08-24T11:52:40;8.75;;;2.40;;
46334;SDS011;32051;48.882;9.210;2023-08-24T11:55:07;8.18;;;2.42;;
46334;SDS011;32051;48.882;9.210;2023-08-24T11:57:37;2.30;;;2.03;;
46334;SDS011;32051;48.882;9.210;2023-08-24T12:00:03;3.60;;;2.72;;
46334;SDS011;32051;48.882;9.210;2023-08-24T12:02:30;2.33;;;2.10;;
46334;SDS011;32051;48.882;9.210;2023-08-24T12:04:57;5.80;;;2.63;;
46334;SDS011;32051;48.882;9.210;2023-08-24T12:07:24;6.90;;;3.25;;
46334;SDS011;32051;48.882;9.210;2023-08-24T12:09:51;6.35;;;2.60;;
46334;SDS011;32051;48.882;9.210;2023-08-24T12:12:21;6.10;;;3.10;;
46334;SDS011;32051;48.882;9.210;2023-08-24T12:14:49;2.70;;;2.50;;
46334;SDS011;32051;48.882;9.210;2023-08-24T12:17:15;11.43;;;2.58;;
46334;SDS011;32051;48.882;9.210;2023-08-24T12:19:43;4.78;;;2.58;;
46334;SDS011;32051;48.882;9.210;2023-08-24T12:22:16;4.20;;;2.30;;
46334;SDS011;32051;48.882;9.210;2023-08-24T12:24:45;8.15;;;2.53;;
46334;SDS011;32051;48.882;9.210;2023-08-24T12:27:21;11.75;;;2.47;;
46334;SDS011;32051;48.882;9.210;2023-08-24T12:29:48;15.18;;;3.15;;
46334;SDS011;32051;48.882;9.210;2023-08-24T12:32:14;6.75;;;2.83;;
46334;SDS011;32051;48.882;9.210;2023-08-24T12:34:41;9.88;;;2.88;;
46334;SDS011;32051;48.882;9.210;2023-08-24T12:37:10;16.27;;;4.25;;
46334;SDS011;32051;48.882;9.210;2023-08-24T12:39:36;6.35;;;3.20;;
46334;SDS011;32051;48.882;9.210;2023-08-24T12:42:02;4.45;;;2.72;;
46334;SDS011;32051;48.882;9.210;2023-08-24T12:44:29;2.72;;;2.35;;
46334;SDS011;32051;48.882;9.210;2023-08-24T12:46:54;7.30;;;2.42;;
46334;SDS011;32051;48.882;9.210;2023-08-24T12:49:20;9.25;;;2.92;;
46334;SDS011;32051;48.882;9.210;2023-08-24T12:51:46;6.38;;;2.47;;
46334;SDS011;32051;48.882;9.210;2023-08-24T12:54:12;3.20;;;2.15;;
46334;SDS011;32051;48.882;9.210;2023-08-24T12:56:41;5.18;;;3.60;;
46334;SDS011;32051;48.882;9.210;2023-08-24T12:59:07;6.25;;;2.53;;
46334;SDS011;32051;48.882;9.210;2023-08-24T13:01:33;5.55;;;2.22;;
46334;SDS011;32051;48.882;9.210;2023-08-24T13:03:59;6.20;;;2.67;;
46334;SDS011;32051;48.882;9.210;2023-08-24T13:06:25;7.18;;;2.75;;
46334;SDS011;32051;48.882;9.210;2023-08-24T13:08:54;5.97;;;3.05;;
46334;SDS011;32051;48.882;9.210;2023-08-24T13:11:21;5.45;;;3.08;;
46334;SDS011;32051;48.882;9.210;2023-08-24T13:13:47;6.53;;;2.67;;
46334;SDS011;32051;48.882;9.210;2023-08-24T13:16:13;7.30;;;2.58;;
46334;SDS011;32051;48.882;9.210;2023-08-24T13:18:40;7.78;;;2.35;;
46334;SDS011;32051;48.882;9.210;2023-08-24T13:21:05;3.47;;;2.78;;
46334;SDS011;32051;48.882;9.210;2023-08-24T13:23:31;9.10;;;2.95;;
46334;SDS011;32051;48.882;9.210;2023-08-24T13:25:58;4.72;;;3.33;;
46334;SDS011;32051;48.882;9.210;2023-08-24T13:28:24;5.63;;;3.00;;
46334;SDS011;32051;48.882;9.210;2023-08-24T13:30:50;5.57;;;2.28;;
46334;SDS011;32051;48.882;9.210;2023-08-24T13:33:15;10.80;;;2.70;;
46334;SDS011;32051;48.882;9.210;2023-08-24T13:35:41;4.60;;;2.42;;
46334;SDS011;32051;48.882;9.210;2023-08-24T13:38:07;3.25;;;2.25;;
46334;SDS011;32051;48.882;9.210;2023-08-24T13:40:33;8.10;;;2.65;;
46334;SDS011;32051;48.882;9.210;2023-08-24T13:42:59;13.05;;;2.28;;
46334;SDS011;32051;48.882;9.210;2023-08-24T13:45:25;8.38;;;2.38;;
46334;SDS011;32051;48.882;9.210;2023-08-24T13:47:50;22.00;;;4.25;;
46334;SDS011;32051;48.882;9.210;2023-08-24T13:50:16;6.20;;;3.42;;
46334;SDS011;32051;48.882;9.210;2023-08-24T13:52:42;14.55;;;2.60;;
46334;SDS011;32051;48.882;9.210;2023-08-24T13:55:09;11.90;;;2.45;;
46334;SDS011;32051;48.882;9.210;2023-08-24T13:57:35;8.07;;;3.33;;
46334;SDS011;32051;48.882;9.210;2023-08-24T14:00:01;7.15;;;2.90;;
46334;SDS011;32051;48.882;9.210;2023-08-24T14:02:37;14.18;;;3.80;;
46334;SDS011;32051;48.882;9.210;2023-08-24T14:05:03;12.88;;;4.05;;
46334;SDS011;32051;48.882;9.210;2023-08-24T14:07:34;23.92;;;4.60;;
46334;SDS011;32051;48.882;9.210;2023-08-24T14:10:01;15.05;;;2.90;;
46334;SDS011;32051;48.882;9.210;2023-08-24T14:12:27;12.32;;;3.40;;
46334;SDS011;32051;48.882;9.210;2023-08-24T14:14:53;17.30;;;4.18;;
46334;SDS011;32051;48.882;9.210;2023-08-24T14:17:19;5.80;;;2.92;;
46334;SDS011;32051;48.882;9.210;2023-08-24T14:19:45;12.32;;;2.65;;
46334;SDS011;32051;48.882;9.210;2023-08-24T14:22:11;12.88;;;3.55;;
46334;SDS011;32051;48.882;9.210;2023-08-24T14:24:37;9.80;;;3.05;;
46334;SDS011;32051;48.882;9.210;2023-08-24T14:27:03;9.13;;;2.78;;
46334;SDS011;32051;48.882;9.210;2023-08-24T14:29:29;9.55;;;2.88;;
46334;SDS011;32051;48.882;9.210;2023-08-24T14:31:54;14.80;;;3.53;;
46334;SDS011;32051;48.882;9.210;2023-08-24T14:34:20;20.50;;;2.92;;
46334;SDS011;32051;48.882;9.210;2023-08-24T14:36:46;14.40;;;3.78;;
46334;SDS011;32051;48.882;9.210;2023-08-24T14:39:12;9.10;;;2.78;;
46334;SDS011;32051;48.882;9.210;2023-08-24T14:41:38;11.48;;;3.95;;
46334;SDS011;32051;48.882;9.210;2023-08-24T14:44:04;13.82;;;3.42;;
46334;SDS011;32051;48.882;9.210;2023-08-24T14:46:30;13.45;;;3.55;;
46334;SDS011;32051;48.882;9.210;2023-08-24T14:48:55;7.50;;;2.95;;